sensor_id;sensor_type;location;lat;lon;timestamp;pressure;altitude;pressure_sealevel;temperature;humidity
38466;BME280;24244;51.950;5.902;2023-06-24T00:01:01;102320.16;;;20.23;68.08
38466;BME280;24244;51.950;5.902;2023-06-24T00:03:28;102317.84;;;20.20;68.36
38466;BME280;24244;51.950;5.902;2023-06-24T00:05:57;102318.91;;;20.19;68.30
38466;BME280;24244;51.950;5.902;2023-06-24T00:08:25;102318.06;;;20.18;68.40
38466;BME280;24244;51.950;5.902;2023-06-24T00:11:01;102317.47;;;20.16;68.42
38466;BME280;24244;51.950;5.902;2023-06-24T00:13:29;102322.88;;;20.16;68.50
38466;BME280;24244;51.950;5.902;2023-06-24T00:15:58;102314.78;;;20.16;68.52
38466;BME280;24244;51.950;5.902;2023-06-24T00:18:24;102317.47;;;20.16;68.62
38466;BME280;24244;51.950;5.902;2023-06-24T00:20:55;102318.72;;;20.14;68.72
38466;BME280;24244;51.950;5.902;2023-06-24T00:23:27;102321.63;;;20.12;68.49
38466;BME280;24244;51.950;5.902;2023-06-24T00:25:54;102321.03;;;20.10;68.73
38466;BME280;24244;51.950;5.902;2023-06-24T00:28:22;102318.53;;;20.09;68.92
38466;BME280;24244;51.950;5.902;2023-06-24T00:30:49;102321.22;;;20.09;69.10
38466;BME280;24244;51.950;5.902;2023-06-24T00:33:16;102327.66;;;20.08;69.20
38466;BME280;24244;51.950;5.902;2023-06-24T00:35:46;102328.69;;;20.07;69.22
38466;BME280;24244;51.950;5.902;2023-06-24T00:38:13;102328.91;;;20.05;69.48
38466;BME280;24244;51.950;5.902;2023-06-24T00:40:41;102326.19;;;20.05;69.68
38466;BME280;24244;51.950;5.902;2023-06-24T00:43:08;102331.59;;;20.05;69.83
38466;BME280;24244;51.950;5.902;2023-06-24T00:45:36;102324.97;;;20.08;69.99
38466;BME280;24244;51.950;5.902;2023-06-24T00:48:04;102321.22;;;20.09;69.88
38466;BME280;24244;51.950;5.902;2023-06-24T00:50:31;102321.03;;;20.10;70.19
38466;BME280;24244;51.950;5.902;2023-06-24T00:52:57;102324.75;;;20.09;70.12
38466;BME280;24244;51.950;5.902;2023-06-24T00:55:24;102325.59;;;20.10;70.26
38466;BME280;24244;51.950;5.902;2023-06-24T00:57:53;102341.34;;;20.13;70.46
38466;BME280;24244;51.950;5.902;2023-06-24T01:00:21;102335.75;;;20.14;70.54
38466;BME280;24244;51.950;5.902;2023-06-24T01:02:50;102328.03;;;20.18;70.62
38466;BME280;24244;51.950;5.902;2023-06-24T01:05:17;102334.06;;;20.20;70.40
38466;BME280;24244;51.950;5.902;2023-06-24T01:07:51;102328.66;;;20.20;70.68
38466;BME280;24244;51.950;5.902;2023-06-24T01:10:23;102324.28;;;20.19;70.62
38466;BME280;24244;51.950;5.902;2023-06-24T01:12:50;102314.31;;;20.19;70.60
38466;BME280;24244;51.950;5.902;2023-06-24T01:15:19;102309.75;;;20.20;70.60
38466;BME280;24244;51.950;5.902;2023-06-24T01:17:53;102309.97;;;20.18;70.70
38466;BME280;24244;51.950;5.902;2023-06-24T01:20:26;102311.84;;;20.18;70.67
38466;BME280;24244;51.950;5.902;2023-06-24T01:26:20;102314.56;;;20.11;70.96
38466;BME280;24244;51.950;5.902;2023-06-24T01:29:09;102316.66;;;20.09;71.21
38466;BME280;24244;51.950;5.902;2023-06-24T01:31:42;102320.59;;;20.07;71.06
38466;BME280;24244;51.950;5.902;2023-06-24T01:34:17;102316.44;;;20.04;70.87
38466;BME280;24244;51.950;5.902;2023-06-24T01:36:53;102310.66;;;20.01;71.39
38466;BME280;24244;51.950;5.902;2023-06-24T01:39:24;102319.38;;;19.96;71.43
38466;BME280;24244;51.950;5.902;2023-06-24T01:41:57;102327.69;;;19.94;71.89
38466;BME280;24244;51.950;5.902;2023-06-24T01:44:27;102320.41;;;19.95;71.67
38466;BME280;24244;51.950;5.902;2023-06-24T01:46:58;102333.09;;;19.94;71.75
38466;BME280;24244;51.950;5.902;2023-06-24T01:49:28;102332.06;;;19.96;71.82
38466;BME280;24244;51.950;5.902;2023-06-24T01:51:57;102323.94;;;19.96;71.73
38466;BME280;24244;51.950;5.902;2023-06-24T01:54:28;102323.94;;;19.96;71.82
38466;BME280;24244;51.950;5.902;2023-06-24T01:56:57;102331.22;;;19.95;71.87
38466;BME280;24244;51.950;5.902;2023-06-24T01:59:28;102334.13;;;19.93;72.04
38466;BME280;24244;51.950;5.902;2023-06-24T02:01:57;102320.63;;;19.93;71.95
38466;BME280;24244;51.950;5.902;2023-06-24T02:04:27;102315.63;;;19.90;72.15
38466;BME280;24244;51.950;5.902;2023-06-24T02:06:59;102326.66;;;19.89;72.09
38466;BME280;24244;51.950;5.902;2023-06-24T02:09:27;102316.91;;;19.88;72.18
38466;BME280;24244;51.950;5.902;2023-06-24T02:11:56;102306.09;;;19.88;72.25
38466;BME280;24244;51.950;5.902;2023-06-24T02:14:25;102311.72;;;19.86;72.30
38466;BME280;24244;51.950;5.902;2023-06-24T02:16:53;102318.13;;;19.85;72.25
38466;BME280;24244;51.950;5.902;2023-06-24T02:19:30;102312.75;;;19.85;72.35
38466;BME280;24244;51.950;5.902;2023-06-24T02:21:58;102306.50;;;19.85;72.34
38466;BME280;24244;51.950;5.902;2023-06-24T02:24:26;102308.59;;;19.83;72.43
38466;BME280;24244;51.950;5.902;2023-06-24T02:26:54;102307.16;;;19.80;72.32
38466;BME280;24244;51.950;5.902;2023-06-24T02:29:25;102310.06;;;19.79;72.33
38466;BME280;24244;51.950;5.902;2023-06-24T02:31:52;102310.25;;;19.77;72.86
38466;BME280;24244;51.950;5.902;2023-06-24T02:34:19;102306.13;;;19.75;72.76
38466;BME280;24244;51.950;5.902;2023-06-24T02:36:48;102309.03;;;19.73;72.80
38466;BME280;24244;51.950;5.902;2023-06-24T02:39:15;102303.19;;;19.70;72.72
38466;BME280;24244;51.950;5.902;2023-06-24T02:41:42;102299.06;;;19.67;72.78
38466;BME280;24244;51.950;5.902;2023-06-24T02:44:09;102292.41;;;19.63;72.84
38466;BME280;24244;51.950;5.902;2023-06-24T02:46:36;102291.00;;;19.61;73.21
38466;BME280;24244;51.950;5.902;2023-06-24T02:49:05;102285.78;;;19.59;73.03
38466;BME280;24244;51.950;5.902;2023-06-24T02:51:34;102288.91;;;19.56;73.09
38466;BME280;24244;51.950;5.902;2023-06-24T02:54:03;102292.84;;;19.53;73.18
38466;BME280;24244;51.950;5.902;2023-06-24T02:56:31;102288.91;;;19.49;73.23
38466;BME280;24244;51.950;5.902;2023-06-24T02:58:58;102291.16;;;19.46;73.29
38466;BME280;24244;51.950;5.902;2023-06-24T03:01:26;102293.44;;;19.42;73.40
38466;BME280;24244;51.950;5.902;2023-06-24T03:03:54;102299.03;;;19.41;73.26
38466;BME280;24244;51.950;5.902;2023-06-24T03:06:22;102300.28;;;19.38;73.30
38466;BME280;24244;51.950;5.902;2023-06-24T03:08:49;102296.97;;;19.36;73.60
38466;BME280;24244;51.950;5.902;2023-06-24T03:11:18;102294.47;;;19.35;73.62
38466;BME280;24244;51.950;5.902;2023-06-24T03:13:45;102298.19;;;19.34;73.84
38466;BME280;24244;51.950;5.902;2023-06-24T03:16:12;102307.31;;;19.33;73.64
38466;BME280;24244;51.950;5.902;2023-06-24T03:18:40;102305.06;;;19.30;73.66
38466;BME280;24244;51.950;5.902;2023-06-24T03:21:08;102299.03;;;19.28;73.74
38466;BME280;24244;51.950;5.902;2023-06-24T03:23:35;102307.31;;;19.26;73.79
38466;BME280;24244;51.950;5.902;2023-06-24T03:26:03;102302.97;;;19.25;73.86
38466;BME280;24244;51.950;5.902;2023-06-24T03:28:31;102308.56;;;19.24;73.98
38466;BME280;24244;51.950;5.902;2023-06-24T03:30:58;102305.25;;;19.22;74.12
38466;BME280;24244;51.950;5.902;2023-06-24T03:33:25;102302.94;;;19.18;74.22
38466;BME280;24244;51.950;5.902;2023-06-24T03:35:53;102302.16;;;19.18;74.24
38466;BME280;24244;51.950;5.902;2023-06-24T03:38:21;102300.69;;;19.15;74.36
38466;BME280;24244;51.950;5.902;2023-06-24T03:40:48;102304.41;;;19.14;74.31
38466;BME280;24244;51.950;5.902;2023-06-24T03:43:15;102306.47;;;19.12;74.37
38466;BME280;24244;51.950;5.902;2023-06-24T03:45:43;102303.78;;;19.12;74.38
38466;BME280;24244;51.950;5.902;2023-06-24T03:48:10;102300.47;;;19.10;74.49
38466;BME280;24244;51.950;5.902;2023-06-24T03:50:37;102304.19;;;19.09;74.57
38466;BME280;24244;51.950;5.902;2023-06-24T03:53:03;102306.06;;;19.09;74.51
38466;BME280;24244;51.950;5.902;2023-06-24T03:55:30;102300.03;;;19.07;74.68
38466;BME280;24244;51.950;5.902;2023-06-24T03:57:58;102309.16;;;19.06;74.60
38466;BME280;24244;51.950;5.902;2023-06-24T04:00:25;102302.31;;;19.03;74.81
38466;BME280;24244;51.950;5.902;2023-06-24T04:02:53;102307.72;;;19.03;74.92
38466;BME280;24244;51.950;5.902;2023-06-24T04:05:20;102306.88;;;19.03;74.84
38466;BME280;24244;51.950;5.902;2023-06-24T04:07:51;102312.88;;;19.05;74.84
38466;BME280;24244;51.950;5.902;2023-06-24T04:10:21;102301.25;;;19.04;74.93
38466;BME280;24244;51.950;5.902;2023-06-24T04:12:47;102312.88;;;19.05;74.87
38466;BME280;24244;51.950;5.902;2023-06-24T04:15:15;102310.19;;;19.05;74.84
38466;BME280;24244;51.950;5.902;2023-06-24T04:17:41;102313.72;;;19.05;74.95
38466;BME280;24244;51.950;5.902;2023-06-24T04:20:10;102309.97;;;19.06;75.11
38466;BME280;24244;51.950;5.902;2023-06-24T04:22:38;102312.69;;;19.06;74.96
38466;BME280;24244;51.950;5.902;2023-06-24T04:25:06;102315.38;;;19.06;75.05
38466;BME280;24244;51.950;5.902;2023-06-24T04:27:34;102320.97;;;19.05;75.16
38466;BME280;24244;51.950;5.902;2023-06-24T04:30:02;102314.53;;;19.06;75.23
38466;BME280;24244;51.950;5.902;2023-06-24T04:32:29;102314.34;;;19.07;75.37
38466;BME280;24244;51.950;5.902;2023-06-24T04:34:58;102322.03;;;19.10;75.21
38466;BME280;24244;51.950;5.902;2023-06-24T04:37:26;102316.22;;;19.13;75.37
38466;BME280;24244;51.950;5.902;2023-06-24T04:39:52;102311.47;;;19.15;75.29
38466;BME280;24244;51.950;5.902;2023-06-24T04:42:19;102319.13;;;19.18;75.32
38466;BME280;24244;51.950;5.902;2023-06-24T04:44:46;102316.66;;;19.24;75.23
38466;BME280;24244;51.950;5.902;2023-06-24T04:47:19;102320.78;;;19.26;75.20
38466;BME280;24244;51.950;5.902;2023-06-24T04:49:48;102322.25;;;19.29;75.20
38466;BME280;24244;51.950;5.902;2023-06-24T04:52:15;102331.81;;;19.31;75.17
38466;BME280;24244;51.950;5.902;2023-06-24T04:54:43;102323.50;;;19.33;75.23
38466;BME280;24244;51.950;5.902;2023-06-24T04:57:23;102322.91;;;19.37;75.36
38466;BME280;24244;51.950;5.902;2023-06-24T04:59:50;102312.75;;;19.39;75.22
38466;BME280;24244;51.950;5.902;2023-06-24T05:02:17;102319.78;;;19.40;75.22
38466;BME280;24244;51.950;5.902;2023-06-24T05:04:44;102321.22;;;19.43;75.34
38466;BME280;24244;51.950;5.902;2023-06-24T05:07:11;102311.06;;;19.45;75.28
38466;BME280;24244;51.950;5.902;2023-06-24T05:09:38;102314.41;;;19.47;75.24
38466;BME280;24244;51.950;5.902;2023-06-24T05:12:08;102315.88;;;19.49;75.00
38466;BME280;24244;51.950;5.902;2023-06-24T05:14:35;102312.78;;;19.52;75.03
38466;BME280;24244;51.950;5.902;2023-06-24T05:17:03;102307.97;;;19.54;75.02
38466;BME280;24244;51.950;5.902;2023-06-24T05:19:30;102309.44;;;19.57;74.96
38466;BME280;24244;51.950;5.902;2023-06-24T05:21:57;102312.78;;;19.59;75.03
38466;BME280;24244;51.950;5.902;2023-06-24T05:24:24;102313.16;;;19.63;74.86
38466;BME280;24244;51.950;5.902;2023-06-24T05:26:52;102317.34;;;19.65;74.94
38466;BME280;24244;51.950;5.902;2023-06-24T05:29:20;102316.09;;;19.68;74.70
38466;BME280;24244;51.950;5.902;2023-06-24T05:31:47;102318.56;;;19.69;74.38
38466;BME280;24244;51.950;5.902;2023-06-24T05:34:13;102323.56;;;19.72;73.86
38466;BME280;24244;51.950;5.902;2023-06-24T05:36:40;102326.25;;;19.72;73.27
38466;BME280;24244;51.950;5.902;2023-06-24T05:39:07;102332.28;;;19.74;72.56
38466;BME280;24244;51.950;5.902;2023-06-24T05:41:34;102329.34;;;19.76;72.39
38466;BME280;24244;51.950;5.902;2023-06-24T05:44:02;102337.88;;;19.79;72.00
38466;BME280;24244;51.950;5.902;2023-06-24T05:46:31;102331.44;;;19.80;71.95
38466;BME280;24244;51.950;5.902;2023-06-24T05:48:58;102330.41;;;19.81;71.62
38466;BME280;24244;51.950;5.902;2023-06-24T05:51:25;102325.59;;;19.83;71.41
38466;BME280;24244;51.950;5.902;2023-06-24T05:53:52;102327.06;;;19.86;71.15
38466;BME280;24244;51.950;5.902;2023-06-24T05:56:20;102332.84;;;19.89;70.83
38466;BME280;24244;51.950;5.902;2023-06-24T05:58:47;102329.97;;;19.91;70.73
38466;BME280;24244;51.950;5.902;2023-06-24T06:01:14;102337.66;;;19.94;70.49
38466;BME280;24244;51.950;5.902;2023-06-24T06:03:42;102336.38;;;19.97;70.42
38466;BME280;24244;51.950;5.902;2023-06-24T06:06:10;102334.31;;;19.99;70.09
38466;BME280;24244;51.950;5.902;2023-06-24T06:08:37;102339.31;;;20.02;69.74
38466;BME280;24244;51.950;5.902;2023-06-24T06:11:04;102340.72;;;20.04;69.69
38466;BME280;24244;51.950;5.902;2023-06-24T06:13:31;102339.50;;;20.07;69.64
38466;BME280;24244;51.950;5.902;2023-06-24T06:15:58;102338.03;;;20.11;69.45
38466;BME280;24244;51.950;5.902;2023-06-24T06:18:25;102334.28;;;20.12;69.51
38466;BME280;24244;51.950;5.902;2023-06-24T06:20:53;102335.75;;;20.14;69.18
38466;BME280;24244;51.950;5.902;2023-06-24T06:23:19;102331.56;;;20.18;69.08
38466;BME280;24244;51.950;5.902;2023-06-24T06:25:46;102343.81;;;20.21;69.12
38466;BME280;24244;51.950;5.902;2023-06-24T06:28:15;102339.66;;;20.25;68.97
38466;BME280;24244;51.950;5.902;2023-06-24T06:30:42;102340.28;;;20.27;69.08
38466;BME280;24244;51.950;5.902;2023-06-24T06:33:08;102340.69;;;20.30;69.04
38466;BME280;24244;51.950;5.902;2023-06-24T06:35:35;102346.69;;;20.32;68.81
38466;BME280;24244;51.950;5.902;2023-06-24T06:38:04;102339.03;;;20.36;68.85
38466;BME280;24244;51.950;5.902;2023-06-24T06:40:31;102338.59;;;20.39;68.60
38466;BME280;24244;51.950;5.902;2023-06-24T06:42:58;102335.50;;;20.42;68.57
38466;BME280;24244;51.950;5.902;2023-06-24T06:45:25;102336.13;;;20.44;68.42
38466;BME280;24244;51.950;5.902;2023-06-24T06:47:53;102338.38;;;20.47;68.20
38466;BME280;24244;51.950;5.902;2023-06-24T06:50:20;102342.53;;;20.50;68.15
38466;BME280;24244;51.950;5.902;2023-06-24T06:52:47;102348.31;;;20.53;67.95
38466;BME280;24244;51.950;5.902;2023-06-24T06:55:15;102349.56;;;20.57;67.90
38466;BME280;24244;51.950;5.902;2023-06-24T06:57:42;102349.13;;;20.60;67.79
38466;BME280;24244;51.950;5.902;2023-06-24T07:00:10;102351.41;;;20.63;67.70
38466;BME280;24244;51.950;5.902;2023-06-24T07:02:37;102349.13;;;20.67;67.52
38466;BME280;24244;51.950;5.902;2023-06-24T07:05:04;102344.09;;;20.70;67.49
38466;BME280;24244;51.950;5.902;2023-06-24T07:07:32;102348.06;;;20.75;67.33
38466;BME280;24244;51.950;5.902;2023-06-24T07:09:59;102355.50;;;20.79;67.25
38466;BME280;24244;51.950;5.902;2023-06-24T07:12:27;102358.59;;;20.83;67.22
38466;BME280;24244;51.950;5.902;2023-06-24T07:14:54;102358.19;;;20.86;66.98
38466;BME280;24244;51.950;5.902;2023-06-24T07:17:21;102364.59;;;20.91;66.88
38466;BME280;24244;51.950;5.902;2023-06-24T07:19:47;102362.06;;;20.96;66.61
38466;BME280;24244;51.950;5.902;2023-06-24T07:22:14;102367.66;;;21.01;66.71
38466;BME280;24244;51.950;5.902;2023-06-24T07:24:41;102364.31;;;21.06;66.29
38466;BME280;24244;51.950;5.902;2023-06-24T07:27:08;102368.84;;;21.12;66.05
38466;BME280;24244;51.950;5.902;2023-06-24T07:29:36;102362.00;;;21.16;65.66
38466;BME280;24244;51.950;5.902;2023-06-24T07:32:04;102369.47;;;21.21;65.71
38466;BME280;24244;51.950;5.902;2023-06-24T07:34:34;102375.88;;;21.26;65.38
38466;BME280;24244;51.950;5.902;2023-06-24T07:37:01;102369.19;;;21.29;65.30
38466;BME280;24244;51.950;5.902;2023-06-24T07:39:47;102371.25;;;21.33;65.13
38466;BME280;24244;51.950;5.902;2023-06-24T07:42:14;102376.84;;;21.38;65.28
38466;BME280;24244;51.950;5.902;2023-06-24T07:44:46;102369.09;;;21.42;65.04
38466;BME280;24244;51.950;5.902;2023-06-24T07:47:13;102378.22;;;21.47;64.68
38466;BME280;24244;51.950;5.902;2023-06-24T07:49:40;102375.72;;;21.53;64.67
38466;BME280;24244;51.950;5.902;2023-06-24T07:52:07;102372.53;;;21.56;64.50
38466;BME280;24244;51.950;5.902;2023-06-24T07:54:34;102368.59;;;21.58;64.03
38466;BME280;24244;51.950;5.902;2023-06-24T07:57:02;102369.78;;;21.62;63.53
38466;BME280;24244;51.950;5.902;2023-06-24T07:59:29;102365.59;;;21.66;63.53
38466;BME280;24244;51.950;5.902;2023-06-24T08:01:57;102364.94;;;21.71;63.52
38466;BME280;24244;51.950;5.902;2023-06-24T08:04:24;102360.72;;;21.75;63.24
38466;BME280;24244;51.950;5.902;2023-06-24T08:06:51;102364.66;;;21.79;63.08
38466;BME280;24244;51.950;5.902;2023-06-24T08:09:18;102360.44;;;21.83;63.01
38466;BME280;24244;51.950;5.902;2023-06-24T08:11:47;102357.09;;;21.87;63.00
38466;BME280;24244;51.950;5.902;2023-06-24T08:14:14;102351.22;;;21.91;62.62
38466;BME280;24244;51.950;5.902;2023-06-24T08:16:41;102351.63;;;21.94;62.54
38466;BME280;24244;51.950;5.902;2023-06-24T08:19:09;102356.59;;;21.97;62.49
38466;BME280;24244;51.950;5.902;2023-06-24T08:21:36;102358.25;;;21.98;62.13
38466;BME280;24244;51.950;5.902;2023-06-24T08:24:04;102349.09;;;21.99;62.21
38466;BME280;24244;51.950;5.902;2023-06-24T08:26:31;102360.53;;;22.01;61.85
38466;BME280;24244;51.950;5.902;2023-06-24T08:28:58;102346.75;;;22.03;61.71
38466;BME280;24244;51.950;5.902;2023-06-24T08:31:30;102348.41;;;22.04;61.45
38466;BME280;24244;51.950;5.902;2023-06-24T08:33:59;102343.59;;;22.06;61.33
38466;BME280;24244;51.950;5.902;2023-06-24T08:36:27;102348.59;;;22.09;61.22
38466;BME280;24244;51.950;5.902;2023-06-24T08:38:54;102344.38;;;22.13;60.91
38466;BME280;24244;51.950;5.902;2023-06-24T08:41:22;102346.41;;;22.17;60.82
38466;BME280;24244;51.950;5.902;2023-06-24T08:43:49;102346.19;;;22.19;60.70
38466;BME280;24244;51.950;5.902;2023-06-24T08:46:17;102338.66;;;22.21;60.65
38466;BME280;24244;51.950;5.902;2023-06-24T08:48:48;102343.38;;;22.25;60.59
38466;BME280;24244;51.950;5.902;2023-06-24T08:51:18;102350.88;;;22.30;60.42
38466;BME280;24244;51.950;5.902;2023-06-24T08:53:51;102340.38;;;22.34;60.14
38466;BME280;24244;51.950;5.902;2023-06-24T08:56:18;102335.59;;;22.36;60.34
38466;BME280;24244;51.950;5.902;2023-06-24T08:58:45;102339.47;;;22.40;60.08
38466;BME280;24244;51.950;5.902;2023-06-24T09:01:11;102335.28;;;22.44;59.91
38466;BME280;24244;51.950;5.902;2023-06-24T09:03:38;102337.75;;;22.45;59.94
38466;BME280;24244;51.950;5.902;2023-06-24T09:06:05;102337.31;;;22.48;59.95
38466;BME280;24244;51.950;5.902;2023-06-24T09:08:32;102341.19;;;22.52;59.86
38466;BME280;24244;51.950;5.902;2023-06-24T09:11:03;102338.88;;;22.56;59.89
38466;BME280;24244;51.950;5.902;2023-06-24T09:13:34;102331.09;;;22.59;59.90
38466;BME280;24244;51.950;5.902;2023-06-24T09:16:11;102334.19;;;22.63;59.65
38466;BME280;24244;51.950;5.902;2023-06-24T09:18:39;102336.47;;;22.66;59.37
38466;BME280;24244;51.950;5.902;2023-06-24T09:21:07;102327.88;;;22.69;59.47
38466;BME280;24244;51.950;5.902;2023-06-24T09:23:35;102333.44;;;22.74;59.19
38466;BME280;24244;51.950;5.902;2023-06-24T09:26:04;102327.59;;;22.77;58.91
38466;BME280;24244;51.950;5.902;2023-06-24T09:28:30;102323.59;;;22.80;58.89
38466;BME280;24244;51.950;5.902;2023-06-24T09:31:05;102322.28;;;22.82;58.90
38466;BME280;24244;51.950;5.902;2023-06-24T09:33:45;102318.09;;;22.86;58.84
38466;BME280;24244;51.950;5.902;2023-06-24T09:36:14;102314.88;;;22.89;58.48
38466;BME280;24244;51.950;5.902;2023-06-24T09:38:41;102315.06;;;22.94;58.42
38466;BME280;24244;51.950;5.902;2023-06-24T09:41:10;102309.97;;;22.98;58.32
38466;BME280;24244;51.950;5.902;2023-06-24T09:43:41;102308.44;;;23.02;58.01
38466;BME280;24244;51.950;5.902;2023-06-24T09:46:09;102304.22;;;23.06;57.72
38466;BME280;24244;51.950;5.902;2023-06-24T09:48:36;102309.56;;;23.13;57.30
38466;BME280;24244;51.950;5.902;2023-06-24T09:51:04;102302.59;;;23.17;57.28
38466;BME280;24244;51.950;5.902;2023-06-24T09:53:31;102305.44;;;23.22;57.02
38466;BME280;24244;51.950;5.902;2023-06-24T09:56:00;102301.22;;;23.26;57.04
38466;BME280;24244;51.950;5.902;2023-06-24T09:58:32;102307.84;;;23.30;56.85
38466;BME280;24244;51.950;5.902;2023-06-24T10:01:03;102306.28;;;23.34;56.76
38466;BME280;24244;51.950;5.902;2023-06-24T10:03:32;102303.69;;;23.39;56.90
38466;BME280;24244;51.950;5.902;2023-06-24T10:06:00;102307.13;;;23.46;56.43
38466;BME280;24244;51.950;5.902;2023-06-24T10:08:27;102302.94;;;23.50;56.29
38466;BME280;24244;51.950;5.902;2023-06-24T10:10:55;102303.06;;;23.55;56.25
38466;BME280;24244;51.950;5.902;2023-06-24T10:13:22;102298.78;;;23.59;56.20
38466;BME280;24244;51.950;5.902;2023-06-24T10:15:50;102302.47;;;23.65;55.96
38466;BME280;24244;51.950;5.902;2023-06-24T10:18:34;102294.66;;;23.68;55.90
38466;BME280;24244;51.950;5.902;2023-06-24T10:21:03;102299.97;;;23.75;55.61
38466;BME280;24244;51.950;5.902;2023-06-24T10:23:31;102300.69;;;23.82;54.78
38466;BME280;24244;51.950;5.902;2023-06-24T10:25:58;102297.84;;;23.89;54.98
38466;BME280;24244;51.950;5.902;2023-06-24T10:28:25;102298.81;;;23.94;54.92
38466;BME280;24244;51.950;5.902;2023-06-24T10:30:56;102287.22;;;23.99;55.08
38466;BME280;24244;51.950;5.902;2023-06-24T10:33:24;102289.44;;;24.02;54.97
38466;BME280;24244;51.950;5.902;2023-06-24T10:35:51;102294.78;;;24.08;54.95
38466;BME280;24244;51.950;5.902;2023-06-24T10:38:20;102293.22;;;24.12;54.70
38466;BME280;24244;51.950;5.902;2023-06-24T10:40:48;102292.75;;;24.15;54.58
38466;BME280;24244;51.950;5.902;2023-06-24T10:43:25;102296.44;;;24.21;54.64
38466;BME280;24244;51.950;5.902;2023-06-24T10:45:53;102290.28;;;24.26;54.49
38466;BME280;24244;51.950;5.902;2023-06-24T10:48:21;102286.81;;;24.30;54.39
38466;BME280;24244;51.950;5.902;2023-06-24T10:50:48;102286.13;;;24.35;54.34
38466;BME280;24244;51.950;5.902;2023-06-24T10:53:18;102281.13;;;24.43;54.12
38466;BME280;24244;51.950;5.902;2023-06-24T10:55:45;102281.47;;;24.47;54.19
38466;BME280;24244;51.950;5.902;2023-06-24T10:58:14;102286.75;;;24.53;53.73
38466;BME280;24244;51.950;5.902;2023-06-24T11:00:42;102278.69;;;24.58;53.64
38466;BME280;24244;51.950;5.902;2023-06-24T11:03:15;102274.44;;;24.63;53.66
38466;BME280;24244;51.950;5.902;2023-06-24T11:05:44;102276.41;;;24.67;53.24
38466;BME280;24244;51.950;5.902;2023-06-24T11:08:11;102275.72;;;24.72;53.34
38466;BME280;24244;51.950;5.902;2023-06-24T11:10:42;102274.13;;;24.76;53.13
38466;BME280;24244;51.950;5.902;2023-06-24T11:13:10;102273.38;;;24.80;53.28
38466;BME280;24244;51.950;5.902;2023-06-24T11:15:38;102264.53;;;24.85;53.46
38466;BME280;24244;51.950;5.902;2023-06-24T11:18:07;102261.28;;;24.88;53.28
38466;BME280;24244;51.950;5.902;2023-06-24T11:20:38;102266.28;;;24.91;53.54
38466;BME280;24244;51.950;5.902;2023-06-24T11:23:10;102264.25;;;24.98;53.12
38466;BME280;24244;51.950;5.902;2023-06-24T11:25:39;102258.88;;;25.03;52.96
38466;BME280;24244;51.950;5.902;2023-06-24T11:28:12;102260.59;;;25.09;53.08
38466;BME280;24244;51.950;5.902;2023-06-24T11:30:39;102258.00;;;25.14;53.00
38466;BME280;24244;51.950;5.902;2023-06-24T11:33:06;102263.75;;;25.18;53.06
38466;BME280;24244;51.950;5.902;2023-06-24T11:35:33;102258.66;;;25.21;53.13
38466;BME280;24244;51.950;5.902;2023-06-24T11:38:02;102251.88;;;25.24;53.05
38466;BME280;24244;51.950;5.902;2023-06-24T11:40:31;102245.13;;;25.26;53.14
38466;BME280;24244;51.950;5.902;2023-06-24T11:43:00;102242.47;;;25.31;52.58
38466;BME280;24244;51.950;5.902;2023-06-24T11:45:28;102241.47;;;25.38;52.48
38466;BME280;24244;51.950;5.902;2023-06-24T11:48:02;102238.84;;;25.43;52.44
38466;BME280;24244;51.950;5.902;2023-06-24T11:50:32;102239.97;;;25.47;52.48
38466;BME280;24244;51.950;5.902;2023-06-24T11:52:59;102235.66;;;25.51;52.55
38466;BME280;24244;51.950;5.902;2023-06-24T11:55:26;102236.84;;;25.55;52.64
38466;BME280;24244;51.950;5.902;2023-06-24T11:57:57;102232.56;;;25.59;52.31
38466;BME280;24244;51.950;5.902;2023-06-24T12:00:25;102232.06;;;25.62;52.31
38466;BME280;24244;51.950;5.902;2023-06-24T12:02:53;102230.47;;;25.66;52.38
38466;BME280;24244;51.950;5.902;2023-06-24T12:05:26;102230.81;;;25.69;52.24
38466;BME280;24244;51.950;5.902;2023-06-24T12:07:56;102228.41;;;25.73;52.28
38466;BME280;24244;51.950;5.902;2023-06-24T12:10:23;102226.00;;;25.77;52.36
38466;BME280;24244;51.950;5.902;2023-06-24T12:12:50;102221.94;;;25.79;52.22
38466;BME280;24244;51.950;5.902;2023-06-24T12:15:19;102224.19;;;25.82;52.14
38466;BME280;24244;51.950;5.902;2023-06-24T12:17:46;102218.25;;;25.85;51.99
38466;BME280;24244;51.950;5.902;2023-06-24T12:20:14;102216.63;;;25.89;51.99
38466;BME280;24244;51.950;5.902;2023-06-24T12:22:41;102213.41;;;25.92;51.66
38466;BME280;24244;51.950;5.902;2023-06-24T12:25:09;102211.00;;;25.96;51.86
38466;BME280;24244;51.950;5.902;2023-06-24T12:27:36;102206.72;;;26.00;51.35
38466;BME280;24244;51.950;5.902;2023-06-24T12:30:03;102205.94;;;26.04;51.44
38466;BME280;24244;51.950;5.902;2023-06-24T12:32:34;102213.09;;;26.10;51.30
38466;BME280;24244;51.950;5.902;2023-06-24T12:35:01;102213.13;;;26.16;51.39
38466;BME280;24244;51.950;5.902;2023-06-24T12:37:30;102201.75;;;26.19;51.46
38466;BME280;24244;51.950;5.902;2023-06-24T12:39:58;102208.59;;;26.21;51.41
38466;BME280;24244;51.950;5.902;2023-06-24T12:42:25;102204.50;;;26.24;51.51
38466;BME280;24244;51.950;5.902;2023-06-24T12:44:52;102201.91;;;26.29;50.93
38466;BME280;24244;51.950;5.902;2023-06-24T12:47:19;102203.84;;;26.33;51.09
38466;BME280;24244;51.950;5.902;2023-06-24T12:49:47;102206.88;;;26.37;51.04
38466;BME280;24244;51.950;5.902;2023-06-24T12:52:14;102199.00;;;26.40;50.98
38466;BME280;24244;51.950;5.902;2023-06-24T12:54:41;102191.13;;;26.44;51.03
38466;BME280;24244;51.950;5.902;2023-06-24T12:57:09;102191.69;;;26.46;51.13
38466;BME280;24244;51.950;5.902;2023-06-24T12:59:40;102186.28;;;26.51;50.10